Time;durP1;ratioP1;P1;durP2;ratioP2;P2;SDS_P1;SDS_P2;PMS_P1;PMS_P2;Temp;Humidity;BMP_temperature;BMP_pressure;BME280_temperature;BME280_humidity;BME280_pressure;Samples;Min_cycle;Max_cycle;Signal;HPM_P1;HPM_P2
2023/10/16 00:00:49;;;;;;;2.00;0.60;;;;;;;;;;5014730;28;20383;-66
2023/10/16 00:03:17;;;;;;;2.10;0.63;;;;;;;;;;5015932;28;20046;-67
2023/10/16 00:05:51;;;;;;;2.08;0.60;;;;;;;;;;5000638;28;20096;-66
2023/10/16 00:08:18;;;;;;;3.85;0.50;;;;;;;;;;5005652;28;20052;-66
2023/10/16 00:10:58;;;;;;;1.75;0.52;;;;;;;;;;4993179;28;20077;-66
2023/10/16 00:13:28;;;;;;;2.42;0.70;;;;;;;;;;4990326;28;20042;-65
2023/10/16 00:16:02;;;;;;;3.30;0.55;;;;;;;;;;4990732;28;20845;-65
2023/10/16 00:18:36;;;;;;;4.45;0.75;;;;;;;;;;4991420;28;20099;-66
2023/10/16 00:21:06;;;;;;;2.38;0.65;;;;;;;;;;4992026;28;20038;-65
2023/10/16 00:23:39;;;;;;;3.67;0.82;;;;;;;;;;4989111;28;20463;-66
2023/10/16 00:26:12;;;;;;;2.95;1.02;;;;;;;;;;4991575;28;20553;-64
2023/10/16 00:28:44;;;;;;;3.42;0.77;;;;;;;;;;4989022;28;20172;-65
2023/10/16 00:31:20;;;;;;;4.10;0.90;;;;;;;;;;5000795;28;20104;-65
2023/10/16 00:33:51;;;;;;;2.65;0.90;;;;;;;;;;5010041;28;20065;-65
2023/10/16 00:36:17;;;;;;;5.75;1.15;;;;;;;;;;5011549;28;20560;-65
2023/10/16 00:38:51;;;;;;;5.40;1.30;;;;;;;;;;5009034;28;20131;-67
2023/10/16 00:41:21;;;;;;;6.32;1.60;;;;;;;;;;5010842;28;20049;-63
2023/10/16 00:43:48;;;;;;;7.20;1.80;;;;;;;;;;4997849;28;20046;-65
2023/10/16 00:46:26;;;;;;;7.97;1.50;;;;;;;;;;4994136;28;20529;-67
2023/10/16 00:48:53;;;;;;;4.60;1.17;;;;;;;;;;5004854;28;20133;-65
2023/10/16 00:51:21;;;;;;;6.20;1.00;;;;;;;;;;4990738;28;20686;-66
2023/10/16 00:53:48;;;;;;;2.92;0.95;;;;;;;;;;4999512;28;20471;-63
2023/10/16 00:56:14;;;;;;;3.40;0.80;;;;;;;;;;4990007;28;20161;-66
2023/10/16 00:58:48;;;;;;;3.45;0.73;;;;;;;;;;5003932;28;20043;-63
2023/10/16 01:01:15;;;;;;;2.60;0.80;;;;;;;;;;4992101;28;20053;-62
2023/10/16 01:03:44;;;;;;;5.78;0.90;;;;;;;;;;4988774;28;20164;-62
2023/10/16 01:06:26;;;;;;;3.38;0.93;;;;;;;;;;5003230;28;20099;-64
2023/10/16 01:08:53;;;;;;;3.30;0.77;;;;;;;;;;5013214;28;20049;-65
2023/10/16 01:11:58;;;;;;;5.38;1.23;;;;;;;;;;5016686;28;20072;-67
2023/10/16 01:17:47;;;;;;;7.30;0.70;;;;;;;;;;5002787;28;20040;-68
2023/10/16 01:23:44;;;;;;;13.10;5.30;;;;;;;;;;4949649;28;20057;-68
2023/10/16 01:26:32;;;;;;;12.25;4.78;;;;;;;;;;5011313;28;20091;-65
2023/10/16 01:28:58;;;;;;;7.43;1.63;;;;;;;;;;4966601;28;20076;-65
2023/10/16 01:31:25;;;;;;;20.15;7.70;;;;;;;;;;4978335;28;20038;-65
2023/10/16 01:33:54;;;;;;;13.27;3.60;;;;;;;;;;4977041;28;20046;-65
2023/10/16 01:36:21;;;;;;;4.85;1.38;;;;;;;;;;4994377;28;20518;-70
2023/10/16 01:38:47;;;;;;;3.35;0.88;;;;;;;;;;4993955;28;20486;-64
2023/10/16 01:41:15;;;;;;;5.38;1.35;;;;;;;;;;4993689;28;20038;-63
2023/10/16 01:43:44;;;;;;;6.13;1.23;;;;;;;;;;4992750;28;20138;-61
2023/10/16 01:46:12;;;;;;;2.83;0.90;;;;;;;;;;4994327;28;20050;-64
2023/10/16 01:48:42;;;;;;;3.15;0.90;;;;;;;;;;4999337;28;20167;-64
2023/10/16 01:51:09;;;;;;;4.18;1.00;;;;;;;;;;5002951;28;20038;-65
2023/10/16 01:53:36;;;;;;;3.88;0.70;;;;;;;;;;5008848;28;20044;-63
2023/10/16 01:56:12;;;;;;;2.47;0.80;;;;;;;;;;5060836;28;20094;-69
2023/10/16 01:58:44;;;;;;;3.47;0.95;;;;;;;;;;5028520;28;21454;-64
2023/10/16 02:01:21;;;;;;;5.95;1.10;;;;;;;;;;5025587;28;20053;-64
2023/10/16 02:03:49;;;;;;;2.65;1.08;;;;;;;;;;4989758;28;20609;-63
2023/10/16 02:06:16;;;;;;;7.75;1.10;;;;;;;;;;4991611;28;20046;-65
2023/10/16 02:08:45;;;;;;;3.55;1.50;;;;;;;;;;4991911;28;20054;-65
2023/10/16 02:11:12;;;;;;;8.35;1.23;;;;;;;;;;4990331;28;20042;-66
2023/10/16 02:13:40;;;;;;;8.73;2.40;;;;;;;;;;4986836;28;20042;-64
2023/10/16 02:16:10;;;;;;;5.40;1.60;;;;;;;;;;4989219;28;20502;-65
2023/10/16 02:18:37;;;;;;;6.90;1.95;;;;;;;;;;4987988;28;20513;-64
2023/10/16 02:21:05;;;;;;;9.20;1.70;;;;;;;;;;4988875;28;20310;-65
2023/10/16 02:23:31;;;;;;;5.53;1.48;;;;;;;;;;4987773;28;20041;-64
2023/10/16 02:26:01;;;;;;;5.13;1.30;;;;;;;;;;4988634;28;20037;-65
2023/10/16 02:28:33;;;;;;;5.90;1.30;;;;;;;;;;4987826;28;20061;-65
2023/10/16 02:31:13;;;;;;;4.43;1.30;;;;;;;;;;4988765;28;20218;-64
2023/10/16 02:33:46;;;;;;;6.85;2.13;;;;;;;;;;5002252;28;20446;-65
2023/10/16 02:36:16;;;;;;;7.93;1.58;;;;;;;;;;4989431;28;20420;-64
2023/10/16 02:38:43;;;;;;;6.03;1.73;;;;;;;;;;4988961;28;20121;-65
2023/10/16 02:41:10;;;;;;;4.63;1.85;;;;;;;;;;4987450;28;20688;-66
2023/10/16 02:43:37;;;;;;;8.73;2.30;;;;;;;;;;4989080;28;20042;-64
2023/10/16 02:46:04;;;;;;;9.10;2.22;;;;;;;;;;4991753;28;20056;-65
2023/10/16 02:48:31;;;;;;;5.50;1.75;;;;;;;;;;4989305;28;20108;-64
2023/10/16 02:50:59;;;;;;;12.63;2.55;;;;;;;;;;4989396;28;20495;-67
2023/10/16 02:53:29;;;;;;;11.90;2.50;;;;;;;;;;4991999;28;20489;-66
2023/10/16 02:56:08;;;;;;;6.05;2.10;;;;;;;;;;4997934;28;20077;-65
2023/10/16 03:01:35;;;;;;;8.80;2.42;;;;;;;;;;4971076;28;20084;-69
2023/10/16 03:04:04;;;;;;;8.35;2.50;;;;;;;;;;4989836;28;20065;-66
2023/10/16 03:06:35;;;;;;;11.85;2.60;;;;;;;;;;4990262;28;20079;-65
2023/10/16 03:09:25;;;;;;;9.48;2.83;;;;;;;;;;4990626;28;20115;-65
2023/10/16 03:11:48;;;;;;;11.65;2.65;;;;;;;;;;4991753;28;20121;-65
2023/10/16 03:14:16;;;;;;;8.23;2.33;;;;;;;;;;4986160;28;20041;-65
2023/10/16 03:16:43;;;;;;;8.82;1.77;;;;;;;;;;4998954;28;20031;-64
2023/10/16 03:19:10;;;;;;;4.63;1.80;;;;;;;;;;5013628;28;20034;-64
2023/10/16 03:21:39;;;;;;;7.72;2.65;;;;;;;;;;4986693;28;20045;-64
2023/10/16 03:24:08;;;;;;;8.48;3.10;;;;;;;;;;4990243;28;20045;-66
2023/10/16 03:26:34;;;;;;;6.32;2.40;;;;;;;;;;4989904;28;20525;-64
2023/10/16 03:29:05;;;;;;;6.60;2.10;;;;;;;;;;4989023;28;20054;-61
2023/10/16 03:31:36;;;;;;;5.82;2.35;;;;;;;;;;4987958;28;20038;-68
2023/10/16 03:34:03;;;;;;;6.90;2.70;;;;;;;;;;4988056;28;20038;-72
2023/10/16 03:36:29;;;;;;;5.25;2.20;;;;;;;;;;4988896;28;20342;-63
2023/10/16 03:38:57;;;;;;;5.20;2.28;;;;;;;;;;4988476;28;20045;-65
2023/10/16 03:43:58;;;;;;;3.65;1.35;;;;;;;;;;4987746;28;20046;-68
2023/10/16 03:46:28;;;;;;;6.30;1.50;;;;;;;;;;4981967;28;20085;-66
2023/10/16 03:48:55;;;;;;;4.45;1.50;;;;;;;;;;5018125;28;20153;-65
2023/10/16 03:51:22;;;;;;;7.28;1.27;;;;;;;;;;4987309;28;20847;-67
2023/10/16 03:53:52;;;;;;;4.07;1.30;;;;;;;;;;4987018;28;20176;-65
2023/10/16 03:56:19;;;;;;;4.07;1.40;;;;;;;;;;5015059;28;20124;-65
2023/10/16 03:58:46;;;;;;;3.42;1.13;;;;;;;;;;4987334;28;20486;-65
2023/10/16 04:01:13;;;;;;;6.80;1.55;;;;;;;;;;4989330;28;20046;-64
2023/10/16 04:04:14;;;;;;;6.80;1.50;;;;;;;;;;5020039;28;20154;-66
2023/10/16 04:06:39;;;;;;;7.25;1.30;;;;;;;;;;4988631;28;20049;-64
2023/10/16 04:09:09;;;;;;;;;;;;;;;;;;4988617;28;20141;-63
2023/10/16 04:11:37;;;;;;;4.78;1.60;;;;;;;;;;4985928;28;19924;-64
2023/10/16 04:14:14;;;;;;;7.75;1.73;;;;;;;;;;4985855;28;20367;-65
2023/10/16 04:16:44;;;;;;;5.57;1.95;;;;;;;;;;4990592;28;21171;-64
2023/10/16 04:21:41;;;;;;;4.30;1.50;;;;;;;;;;4990143;28;20454;-65
2023/10/16 04:43:37;;;;;;;3.47;1.30;;;;;;;;;;4989919;28;20088;-65
2023/10/16 04:46:20;;;;;;;7.82;1.63;;;;;;;;;;4990437;28;20116;-65
2023/10/16 04:48:48;;;;;;;5.72;1.50;;;;;;;;;;4990570;28;20037;-66
2023/10/16 04:51:22;;;;;;;5.85;1.50;;;;;;;;;;4994358;28;20042;-67
2023/10/16 04:53:59;;;;;;;8.55;1.52;;;;;;;;;;5013550;28;20057;-68
2023/10/16 04:59:47;;;;;;;8.00;1.58;;;;;;;;;;4994442;28;20041;-64
2023/10/16 05:02:18;;;;;;;6.03;1.27;;;;;;;;;;4995241;28;20042;-64
2023/10/16 05:07:46;;;;;;;9.65;2.00;;;;;;;;;;5012341;28;20091;-64
2023/10/16 05:10:51;;;;;;;7.95;1.50;;;;;;;;;;5013333;28;20049;-64
2023/10/16 05:16:30;;;;;;;4.32;1.40;;;;;;;;;;5011977;28;20097;-64
2023/10/16 05:18:46;;;;;;;6.32;1.67;;;;;;;;;;5011812;28;20295;-65
2023/10/16 06:16:34;;;;;;;6.32;1.60;;;;;;;;;;5012400;28;20060;-66
2023/10/16 06:19:07;;;;;;;6.55;1.67;;;;;;;;;;5012584;28;20045;-65
2023/10/16 06:21:34;;;;;;;5.95;1.67;;;;;;;;;;5025053;28;20099;-65
2023/10/16 06:24:01;;;;;;;5.22;1.70;;;;;;;;;;4988944;28;20030;-65
2023/10/16 06:26:30;;;;;;;6.10;1.73;;;;;;;;;;4988262;28;20081;-64
2023/10/16 06:28:56;;;;;;;6.82;1.88;;;;;;;;;;4989421;28;20057;-65
2023/10/16 06:31:23;;;;;;;5.30;1.52;;;;;;;;;;4989876;28;20275;-64
2023/10/16 06:33:56;;;;;;;9.13;1.50;;;;;;;;;;4986591;28;20125;-66
2023/10/16 06:36:28;;;;;;;9.93;1.10;;;;;;;;;;5003446;28;20025;-62
2023/10/16 06:38:55;;;;;;;6.18;1.50;;;;;;;;;;4988670;28;20038;-64
2023/10/16 06:41:22;;;;;;;8.23;1.60;;;;;;;;;;4989758;28;20053;-63
2023/10/16 06:43:49;;;;;;;4.88;1.45;;;;;;;;;;5008702;28;20037;-65
2023/10/16 06:46:24;;;;;;;7.47;1.98;;;;;;;;;;5011334;28;20234;-61
2023/10/16 06:48:51;;;;;;;9.57;1.88;;;;;;;;;;4988397;28;20474;-61
2023/10/16 06:51:25;;;;;;;7.32;1.65;;;;;;;;;;5002896;28;20384;-62
2023/10/16 06:54:01;;;;;;;5.43;1.42;;;;;;;;;;4988477;28;20038;-64
2023/10/16 06:56:31;;;;;;;13.52;1.92;;;;;;;;;;4987825;28;20427;-64
2023/10/16 06:58:58;;;;;;;7.80;1.75;;;;;;;;;;4987961;28;20042;-64
2023/10/16 07:01:25;;;;;;;6.57;1.63;;;;;;;;;;4987787;28;20092;-67
2023/10/16 07:03:54;;;;;;;7.88;1.60;;;;;;;;;;4987291;28;20038;-65
2023/10/16 07:06:32;;;;;;;4.53;1.40;;;;;;;;;;4998252;28;20133;-63
2023/10/16 07:09:00;;;;;;;4.65;1.50;;;;;;;;;;5010820;28;20105;-64
2023/10/16 07:11:28;;;;;;;4.70;1.58;;;;;;;;;;5010489;28;20486;-66
2023/10/16 07:13:54;;;;;;;10.05;1.90;;;;;;;;;;4995704;28;20038;-64
2023/10/16 07:16:22;;;;;;;3.78;1.48;;;;;;;;;;4988579;28;20466;-63
2023/10/16 07:18:54;;;;;;;8.80;1.60;;;;;;;;;;4987118;28;20115;-64
2023/10/16 07:21:25;;;;;;;4.78;1.70;;;;;;;;;;4988310;28;20033;-64
2023/10/16 07:23:54;;;;;;;6.65;1.50;;;;;;;;;;4995558;28;20038;-64
2023/10/16 07:26:24;;;;;;;5.18;1.40;;;;;;;;;;4988092;28;20597;-67
2023/10/16 07:28:51;;;;;;;4.85;1.50;;;;;;;;;;5009541;28;20057;-66
2023/10/16 07:31:19;;;;;;;8.88;1.70;;;;;;;;;;5010618;28;20071;-65
2023/10/16 07:33:50;;;;;;;7.47;1.50;;;;;;;;;;5024805;28;20049;-63
2023/10/16 07:36:17;;;;;;;6.18;1.40;;;;;;;;;;5009655;28;20078;-65
2023/10/16 07:38:44;;;;;;;5.10;1.73;;;;;;;;;;5010911;28;20048;-64
2023/10/16 07:41:13;;;;;;;3.53;1.30;;;;;;;;;;5011502;28;20037;-65
2023/10/16 07:43:41;;;;;;;3.67;1.05;;;;;;;;;;5011461;28;20049;-64
2023/10/16 07:48:40;;;;;;;3.78;1.17;;;;;;;;;;5012306;28;20760;-63
2023/10/16 07:51:07;;;;;;;3.60;1.30;;;;;;;;;;5014060;28;20045;-63
2023/10/16 07:53:34;;;;;;;4.35;1.13;;;;;;;;;;5028897;28;20033;-65
2023/10/16 07:56:17;;;;;;;4.03;0.90;;;;;;;;;;5030546;28;20138;-64
2023/10/16 07:58:48;;;;;;;3.67;1.25;;;;;;;;;;5016967;28;20044;-66
2023/10/16 08:03:45;;;;;;;3.35;1.00;;;;;;;;;;5015045;28;20413;-64
2023/10/16 08:06:12;;;;;;;5.97;0.90;;;;;;;;;;5017914;28;20569;-64
2023/10/16 08:08:42;;;;;;;6.05;1.00;;;;;;;;;;5014198;28;20099;-64
2023/10/16 08:11:18;;;;;;;3.42;1.25;;;;;;;;;;5014935;28;20049;-64
2023/10/16 08:13:49;;;;;;;3.70;1.10;;;;;;;;;;5011029;28;20593;-64
2023/10/16 08:16:21;;;;;;;4.00;0.90;;;;;;;;;;5007756;28;20048;-66
2023/10/16 08:18:48;;;;;;;5.18;1.30;;;;;;;;;;5013235;28;20073;-63
2023/10/16 08:21:24;;;;;;;3.35;1.08;;;;;;;;;;4992946;28;20041;-62
2023/10/16 08:23:57;;;;;;;4.32;0.90;;;;;;;;;;4992434;28;20069;-64
2023/10/16 08:26:28;;;;;;;4.95;1.02;;;;;;;;;;4990576;28;20046;-64
2023/10/16 08:28:56;;;;;;;4.65;1.10;;;;;;;;;;5004666;28;20057;-63
2023/10/16 08:31:26;;;;;;;4.30;1.25;;;;;;;;;;4992461;28;20047;-60
2023/10/16 08:33:56;;;;;;;4.13;1.30;;;;;;;;;;5021081;28;20046;-61
2023/10/16 08:36:23;;;;;;;8.07;1.27;;;;;;;;;;4991160;28;20124;-60
2023/10/16 08:38:52;;;;;;;3.42;1.20;;;;;;;;;;4996724;28;20045;-63
2023/10/16 08:41:42;;;;;;;3.13;1.00;;;;;;;;;;4990862;28;20733;-64
2023/10/16 08:44:18;;;;;;;3.60;1.05;;;;;;;;;;4991354;28;20113;-62
2023/10/16 08:49:26;;;;;;;2.78;0.98;;;;;;;;;;4989694;28;20049;-65
2023/10/16 08:51:54;;;;;;;4.10;1.13;;;;;;;;;;4990812;28;20491;-62
2023/10/16 08:54:35;;;;;;;2.83;0.80;;;;;;;;;;4987870;28;20050;-60
2023/10/16 08:57:03;;;;;;;3.92;1.17;;;;;;;;;;4991580;28;20045;-61
2023/10/16 08:59:32;;;;;;;5.03;1.30;;;;;;;;;;5005138;28;20065;-64
2023/10/16 09:02:01;;;;;;;3.92;1.20;;;;;;;;;;4990817;28;20038;-61
2023/10/16 09:04:28;;;;;;;5.70;1.20;;;;;;;;;;5001632;28;20048;-61
2023/10/16 09:06:55;;;;;;;2.83;1.00;;;;;;;;;;4992298;28;20048;-63
2023/10/16 09:09:25;;;;;;;4.35;1.42;;;;;;;;;;5021612;28;20100;-62
2023/10/16 09:11:52;;;;;;;5.85;1.33;;;;;;;;;;4992007;28;20044;-62
2023/10/16 09:14:20;;;;;;;4.30;1.40;;;;;;;;;;4990828;28;20589;-62
2023/10/16 09:16:55;;;;;;;4.72;1.17;;;;;;;;;;4991132;28;20396;-63
2023/10/16 09:19:46;;;;;;;5.35;1.38;;;;;;;;;;4990567;28;20047;-62
2023/10/16 09:22:13;;;;;;;3.75;1.45;;;;;;;;;;4988672;28;20480;-61
2023/10/16 09:24:46;;;;;;;3.40;1.20;;;;;;;;;;4990424;28;20053;-64
2023/10/16 09:27:22;;;;;;;3.45;1.30;;;;;;;;;;4990265;28;20049;-63
2023/10/16 09:29:54;;;;;;;9.55;1.30;;;;;;;;;;5012292;28;20053;-63
2023/10/16 09:32:28;;;;;;;7.70;1.30;;;;;;;;;;5010921;28;20040;-63
2023/10/16 09:35:05;;;;;;;3.70;1.25;;;;;;;;;;5013083;28;22025;-62
2023/10/16 09:37:40;;;;;;;5.70;1.35;;;;;;;;;;5012277;28;20061;-64
2023/10/16 09:40:37;;;;;;;3.30;1.20;;;;;;;;;;5013603;28;20042;-61
2023/10/16 09:43:24;;;;;;;4.85;1.20;;;;;;;;;;5012369;28;20566;-62
2023/10/16 09:46:33;;;;;;;3.92;1.17;;;;;;;;;;5023746;28;20049;-65
2023/10/16 09:48:38;;;;;;;8.93;1.38;;;;;;;;;;5004042;28;20045;-62
2023/10/16 09:51:05;;;;;;;6.45;1.45;;;;;;;;;;5009057;28;21540;-66
2023/10/16 09:53:31;;;;;;;4.90;1.45;;;;;;;;;;5025971;28;20033;-65
2023/10/16 09:56:02;;;;;;;4.57;1.30;;;;;;;;;;5012491;28;20045;-65
2023/10/16 09:58:32;;;;;;;4.63;1.38;;;;;;;;;;5012573;28;20041;-65
2023/10/16 10:01:06;;;;;;;5.20;1.55;;;;;;;;;;5011548;28;20566;-65
2023/10/16 10:03:35;;;;;;;4.10;1.10;;;;;;;;;;5011279;28;20160;-65
2023/10/16 10:06:08;;;;;;;8.07;1.50;;;;;;;;;;5012086;28;20036;-64
2023/10/16 10:11:39;;;;;;;8.10;1.65;;;;;;;;;;5011074;28;20611;-62
2023/10/16 10:16:56;;;;;;;5.82;1.20;;;;;;;;;;5011003;28;21379;-63
2023/10/16 10:19:31;;;;;;;6.32;1.60;;;;;;;;;;5010919;28;20034;-64
2023/10/16 10:22:46;;;;;;;2.90;1.13;;;;;;;;;;5010710;28;20033;-64
2023/10/16 10:25:17;;;;;;;5.80;1.20;;;;;;;;;;4997801;28;20042;-64
2023/10/16 10:27:45;;;;;;;5.30;1.50;;;;;;;;;;5010726;28;20057;-63
2023/10/16 10:30:33;;;;;;;6.80;1.50;;;;;;;;;;5012643;28;20053;-64
2023/10/16 10:32:59;;;;;;;3.40;1.20;;;;;;;;;;5009755;28;20359;-63
2023/10/16 10:35:30;;;;;;;12.98;1.67;;;;;;;;;;5010005;28;20046;-65
2023/10/16 10:38:07;;;;;;;3.10;1.17;;;;;;;;;;5004913;28;20034;-64
2023/10/16 10:40:35;;;;;;;5.30;1.30;;;;;;;;;;5002105;28;20038;-65
2023/10/16 10:43:05;;;;;;;6.05;1.30;;;;;;;;;;5003138;28;20587;-64
2023/10/16 10:45:34;;;;;;;6.18;1.63;;;;;;;;;;4986808;28;20045;-65
2023/10/16 10:48:06;;;;;;;5.88;1.52;;;;;;;;;;5002204;28;20634;-65
2023/10/16 10:50:34;;;;;;;6.90;1.80;;;;;;;;;;4988993;28;20129;-64
2023/10/16 10:53:06;;;;;;;4.78;1.70;;;;;;;;;;4992988;28;20045;-64
2023/10/16 10:55:32;;;;;;;5.20;1.60;;;;;;;;;;5006550;28;21368;-66
2023/10/16 10:58:02;;;;;;;4.47;1.60;;;;;;;;;;5027186;28;20053;-64
2023/10/16 11:05:31;;;;;;;8.73;1.50;;;;;;;;;;4987754;28;20037;-64
2023/10/16 11:10:42;;;;;;;3.40;1.23;;;;;;;;;;4988515;28;20120;-63
2023/10/16 11:13:10;;;;;;;7.97;1.50;;;;;;;;;;4988004;28;20057;-63
2023/10/16 11:15:37;;;;;;;6.72;1.45;;;;;;;;;;4987193;28;20224;-64
2023/10/16 11:18:13;;;;;;;6.55;1.60;;;;;;;;;;4987697;28;20037;-64
2023/10/16 11:20:45;;;;;;;4.10;1.48;;;;;;;;;;4988768;28;20531;-64
2023/10/16 11:23:12;;;;;;;5.07;1.25;;;;;;;;;;4988458;28;20042;-64
2023/10/16 11:25:52;;;;;;;6.47;1.77;;;;;;;;;;4990786;28;20496;-64
2023/10/16 11:28:35;;;;;;;5.93;1.33;;;;;;;;;;4991124;28;20049;-64
2023/10/16 11:31:09;;;;;;;6.00;1.70;;;;;;;;;;5015777;28;20041;-64
2023/10/16 11:33:47;;;;;;;7.35;1.92;;;;;;;;;;4992985;28;20669;-65
2023/10/16 11:36:13;;;;;;;4.40;1.90;;;;;;;;;;4993022;28;20605;-64
2023/10/16 11:38:41;;;;;;;5.07;1.60;;;;;;;;;;4991848;28;20045;-64
2023/10/16 11:41:19;;;;;;;8.15;1.90;;;;;;;;;;4992486;28;20074;-65
2023/10/16 11:43:51;;;;;;;5.47;1.77;;;;;;;;;;5014406;28;20390;-64
2023/10/16 11:46:44;;;;;;;6.97;1.50;;;;;;;;;;5014462;28;20045;-64
2023/10/16 11:51:49;;;;;;;5.97;1.37;;;;;;;;;;4999461;28;20478;-64
2023/10/16 11:54:23;;;;;;;5.25;1.70;;;;;;;;;;4991619;28;20289;-64
2023/10/16 11:56:59;;;;;;;5.35;1.55;;;;;;;;;;4990518;28;20049;-61
2023/10/16 11:59:26;;;;;;;6.50;1.52;;;;;;;;;;4991709;28;20125;-62
2023/10/16 12:01:53;;;;;;;4.57;1.75;;;;;;;;;;4992040;28;20042;-63
2023/10/16 12:04:22;;;;;;;8.27;1.80;;;;;;;;;;4992605;28;20096;-64
2023/10/16 12:06:49;;;;;;;4.80;1.67;;;;;;;;;;4991726;28;20484;-64
2023/10/16 12:09:19;;;;;;;5.65;1.75;;;;;;;;;;4991414;28;20085;-66
2023/10/16 12:11:50;;;;;;;5.65;1.73;;;;;;;;;;4998337;28;20050;-65
2023/10/16 12:14:17;;;;;;;6.70;1.45;;;;;;;;;;4992357;28;20038;-63
2023/10/16 12:16:47;;;;;;;4.63;1.65;;;;;;;;;;4989561;28;20115;-64
2023/10/16 12:19:14;;;;;;;4.65;1.67;;;;;;;;;;4990872;28;20035;-65
2023/10/16 12:21:42;;;;;;;5.07;1.77;;;;;;;;;;5001833;28;20116;-65
2023/10/16 12:24:10;;;;;;;5.18;1.77;;;;;;;;;;5001778;28;20038;-64
2023/10/16 12:26:40;;;;;;;5.93;1.45;;;;;;;;;;4991044;28;20069;-64
2023/10/16 12:29:08;;;;;;;6.80;1.63;;;;;;;;;;4993394;28;20045;-65
2023/10/16 12:31:55;;;;;;;7.55;1.63;;;;;;;;;;5010010;28;20041;-65
2023/10/16 12:34:23;;;;;;;6.05;1.55;;;;;;;;;;5003953;28;20033;-64
2023/10/16 12:36:50;;;;;;;6.18;1.75;;;;;;;;;;5003794;28;20044;-64
2023/10/16 12:39:16;;;;;;;9.40;2.03;;;;;;;;;;5004864;28;20107;-63
2023/10/16 12:41:44;;;;;;;7.00;1.80;;;;;;;;;;5003028;28;20929;-67
2023/10/16 12:44:11;;;;;;;10.98;1.98;;;;;;;;;;5012574;28;20430;-63
2023/10/16 12:46:38;;;;;;;5.70;2.08;;;;;;;;;;5005373;28;20118;-62
2023/10/16 12:49:08;;;;;;;9.38;3.30;;;;;;;;;;5005723;28;20076;-65
2023/10/16 12:51:35;;;;;;;4.35;1.95;;;;;;;;;;5004440;28;21447;-65
2023/10/16 12:54:03;;;;;;;8.93;2.00;;;;;;;;;;5004673;28;20194;-63
2023/10/16 12:56:35;;;;;;;11.50;2.33;;;;;;;;;;5002371;28;21403;-63
2023/10/16 12:59:01;;;;;;;8.60;1.90;;;;;;;;;;5004058;28;20041;-64
2023/10/16 13:01:28;;;;;;;9.60;1.92;;;;;;;;;;5002707;28;20096;-65
2023/10/16 13:03:59;;;;;;;12.57;2.00;;;;;;;;;;5002652;28;20065;-65
2023/10/16 13:06:29;;;;;;;12.15;2.05;;;;;;;;;;5002712;28;20127;-64
2023/10/16 13:08:57;;;;;;;8.93;2.10;;;;;;;;;;4998639;28;20049;-64
2023/10/16 13:11:24;;;;;;;5.47;2.20;;;;;;;;;;4988215;28;20510;-64
2023/10/16 13:13:51;;;;;;;13.02;2.55;;;;;;;;;;4990154;28;20359;-65
2023/10/16 13:16:24;;;;;;;7.65;2.08;;;;;;;;;;4988857;28;20034;-62
2023/10/16 13:18:57;;;;;;;5.30;2.03;;;;;;;;;;4990418;28;20230;-65
2023/10/16 13:21:33;;;;;;;8.02;2.05;;;;;;;;;;4988576;28;20070;-63
2023/10/16 13:24:05;;;;;;;10.18;2.47;;;;;;;;;;4989020;28;20536;-64
2023/10/16 13:26:36;;;;;;;8.48;2.45;;;;;;;;;;4988160;28;20053;-64
2023/10/16 13:29:07;;;;;;;9.13;2.30;;;;;;;;;;4988183;28;20046;-65
2023/10/16 13:31:40;;;;;;;8.98;2.25;;;;;;;;;;4988664;28;20038;-65
2023/10/16 13:34:11;;;;;;;12.00;2.20;;;;;;;;;;4987643;28;20049;-67
2023/10/16 13:36:43;;;;;;;20.00;6.55;;;;;;;;;;4988257;28;20054;-67
2023/10/16 13:39:10;;;;;;;15.03;4.90;;;;;;;;;;4988415;28;20129;-65
2023/10/16 13:41:50;;;;;;;8.68;3.15;;;;;;;;;;5000483;28;20290;-66
2023/10/16 13:44:19;;;;;;;11.25;2.88;;;;;;;;;;4988542;28;20617;-65
2023/10/16 13:46:49;;;;;;;10.82;2.97;;;;;;;;;;4995317;28;20464;-65
2023/10/16 13:49:18;;;;;;;13.27;2.65;;;;;;;;;;4987203;28;20625;-65
2023/10/16 13:51:48;;;;;;;13.18;3.03;;;;;;;;;;4986573;28;20568;-63
2023/10/16 13:54:15;;;;;;;11.95;2.63;;;;;;;;;;4989037;28;20054;-63
2023/10/16 13:56:43;;;;;;;12.13;2.85;;;;;;;;;;4985674;28;20046;-64
2023/10/16 13:59:11;;;;;;;8.55;2.58;;;;;;;;;;4988880;28;20041;-65
2023/10/16 14:01:45;;;;;;;22.77;2.83;;;;;;;;;;4985792;28;20050;-65
2023/10/16 14:04:15;;;;;;;19.70;3.30;;;;;;;;;;4986965;28;20042;-62
2023/10/16 14:06:51;;;;;;;14.07;2.80;;;;;;;;;;5003522;28;20048;-63
2023/10/16 14:09:27;;;;;;;21.38;3.38;;;;;;;;;;4988344;28;20562;-65
2023/10/16 14:11:54;;;;;;;11.80;2.20;;;;;;;;;;4986772;28;20046;-64
2023/10/16 14:14:21;;;;;;;14.88;2.83;;;;;;;;;;4986985;28;20062;-68
2023/10/16 14:16:51;;;;;;;16.13;3.05;;;;;;;;;;4987616;28;20512;-65
2023/10/16 14:19:22;;;;;;;15.55;3.00;;;;;;;;;;4987875;28;20049;-66
2023/10/16 14:21:52;;;;;;;15.52;2.90;;;;;;;;;;4985194;28;20076;-65
2023/10/16 14:24:24;;;;;;;17.58;2.85;;;;;;;;;;4989519;28;20034;-66
2023/10/16 14:26:51;;;;;;;22.90;3.30;;;;;;;;;;5011694;28;20099;-65
2023/10/16 14:29:21;;;;;;;13.25;3.08;;;;;;;;;;4992030;28;20061;-64
2023/10/16 14:31:51;;;;;;;18.58;3.17;;;;;;;;;;4987236;28;20481;-64
2023/10/16 14:34:21;;;;;;;23.35;3.60;;;;;;;;;;4989335;28;20042;-63
2023/10/16 14:36:50;;;;;;;26.20;3.10;;;;;;;;;;5004696;28;20042;-65
2023/10/16 14:39:18;;;;;;;22.27;3.28;;;;;;;;;;5012532;28;20044;-65
2023/10/16 14:41:44;;;;;;;15.10;3.00;;;;;;;;;;5004954;28;20065;-66
2023/10/16 14:44:12;;;;;;;23.00;2.83;;;;;;;;;;4990251;28;20509;-65
2023/10/16 14:46:39;;;;;;;9.15;2.67;;;;;;;;;;4988098;28;21556;-64
2023/10/16 14:49:08;;;;;;;17.90;3.33;;;;;;;;;;5002898;28;20046;-64
2023/10/16 14:51:39;;;;;;;21.67;3.45;;;;;;;;;;4986587;28;20399;-65
2023/10/16 14:54:06;;;;;;;14.90;2.97;;;;;;;;;;4987884;28;20475;-64
2023/10/16 14:56:36;;;;;;;18.38;3.40;;;;;;;;;;4987379;28;20038;-64
2023/10/16 14:59:05;;;;;;;25.85;3.92;;;;;;;;;;4990074;28;20502;-64
2023/10/16 15:01:33;;;;;;;12.63;2.70;;;;;;;;;;4988204;28;20041;-64
2023/10/16 15:04:00;;;;;;;15.70;3.50;;;;;;;;;;4988087;28;20395;-64
2023/10/16 15:06:26;;;;;;;20.23;3.35;;;;;;;;;;4986479;28;20045;-63
2023/10/16 15:08:56;;;;;;;15.20;3.45;;;;;;;;;;4987159;28;20065;-63
2023/10/16 15:11:26;;;;;;;14.23;3.10;;;;;;;;;;4987308;28;20058;-64
2023/10/16 15:13:53;;;;;;;18.45;3.65;;;;;;;;;;4987001;28;20046;-63
2023/10/16 15:16:21;;;;;;;26.00;3.55;;;;;;;;;;4988773;28;20047;-63
2023/10/16 15:18:48;;;;;;;21.48;3.65;;;;;;;;;;4988218;28;20034;-63
2023/10/16 15:21:15;;;;;;;18.95;4.47;;;;;;;;;;4989305;28;20052;-63
2023/10/16 15:23:42;;;;;;;26.02;4.03;;;;;;;;;;4987725;28;20045;-63
2023/10/16 15:26:09;;;;;;;24.73;4.00;;;;;;;;;;4987375;28;20514;-64
2023/10/16 15:28:36;;;;;;;26.90;4.00;;;;;;;;;;4985351;28;20537;-64
2023/10/16 15:31:03;;;;;;;38.35;4.65;;;;;;;;;;4988020;28;20046;-62
2023/10/16 15:33:30;;;;;;;22.80;4.18;;;;;;;;;;4986019;28;20037;-62
2023/10/16 15:35:57;;;;;;;26.48;4.65;;;;;;;;;;4987381;28;20045;-63
2023/10/16 15:38:24;;;;;;;34.40;4.10;;;;;;;;;;4986427;28;20038;-63
2023/10/16 15:40:55;;;;;;;22.15;3.83;;;;;;;;;;4988322;28;20139;-62
2023/10/16 15:43:22;;;;;;;21.90;3.50;;;;;;;;;;4986025;28;20042;-63
2023/10/16 15:45:50;;;;;;;17.75;3.20;;;;;;;;;;4986991;28;20065;-63
2023/10/16 15:48:17;;;;;;;15.95;3.20;;;;;;;;;;4987745;28;20379;-64
2023/10/16 15:50:45;;;;;;;16.42;3.28;;;;;;;;;;4986812;28;20095;-64
2023/10/16 15:53:12;;;;;;;20.17;3.05;;;;;;;;;;4986788;28;20509;-65
2023/10/16 15:55:39;;;;;;;24.25;3.75;;;;;;;;;;4986329;28;20045;-64
2023/10/16 15:58:06;;;;;;;18.70;3.08;;;;;;;;;;4986798;28;20069;-63
2023/10/16 16:00:41;;;;;;;13.77;3.67;;;;;;;;;;5000656;28;20540;-64
2023/10/16 16:03:08;;;;;;;13.73;3.15;;;;;;;;;;4987128;28;20070;-63
2023/10/16 16:05:35;;;;;;;15.40;3.30;;;;;;;;;;5007778;28;21177;-64
2023/10/16 16:08:03;;;;;;;10.60;3.15;;;;;;;;;;4986609;28;20053;-64
2023/10/16 16:10:34;;;;;;;15.38;3.88;;;;;;;;;;4986524;28;20045;-64
2023/10/16 16:13:05;;;;;;;19.25;3.80;;;;;;;;;;4989138;28;20046;-64
2023/10/16 16:15:32;;;;;;;23.83;3.80;;;;;;;;;;4989848;28;20663;-64
2023/10/16 16:18:01;;;;;;;13.23;3.00;;;;;;;;;;4989703;28;20200;-65
2023/10/16 16:20:28;;;;;;;8.13;3.28;;;;;;;;;;4990115;28;20726;-65
2023/10/16 16:22:58;;;;;;;13.18;3.08;;;;;;;;;;4987077;28;20125;-64
2023/10/16 16:25:28;;;;;;;19.60;3.47;;;;;;;;;;5009390;28;20070;-65
2023/10/16 16:27:54;;;;;;;12.23;2.70;;;;;;;;;;4996371;28;20379;-64
2023/10/16 16:30:21;;;;;;;11.90;2.90;;;;;;;;;;4990272;28;20176;-64
2023/10/16 16:32:48;;;;;;;10.98;2.88;;;;;;;;;;5011061;28;20479;-67
2023/10/16 16:35:18;;;;;;;14.35;3.03;;;;;;;;;;5014040;28;20757;-65
2023/10/16 16:37:49;;;;;;;10.68;2.95;;;;;;;;;;4989178;28;20054;-66
2023/10/16 16:40:18;;;;;;;13.75;3.08;;;;;;;;;;4989513;28;20420;-64
2023/10/16 16:42:46;;;;;;;12.05;2.95;;;;;;;;;;4988759;28;20049;-64
2023/10/16 16:45:13;;;;;;;13.70;2.97;;;;;;;;;;4992179;28;20080;-64
2023/10/16 16:47:43;;;;;;;8.40;3.28;;;;;;;;;;4988883;28;20050;-65
2023/10/16 16:50:13;;;;;;;9.95;2.80;;;;;;;;;;4990566;28;20037;-64
2023/10/16 16:52:40;;;;;;;13.15;2.80;;;;;;;;;;4989060;28;20048;-64
2023/10/16 16:55:10;;;;;;;14.57;3.22;;;;;;;;;;4989085;28;20125;-64
2023/10/16 16:57:37;;;;;;;10.60;3.22;;;;;;;;;;4989519;28;20064;-64
2023/10/16 17:00:05;;;;;;;10.75;3.25;;;;;;;;;;4991331;28;20141;-63
2023/10/16 17:02:31;;;;;;;10.60;3.10;;;;;;;;;;4987722;28;20044;-65